Time;durP1;ratioP1;P1;durP2;ratioP2;P2;SDS_P1;SDS_P2;PMS_P1;PMS_P2;Temp;Humidity;BMP_temperature;BMP_pressure;BME280_temperature;BME280_humidity;BME280_pressure;Samples;Min_cycle;Max_cycle;Signal;HPM_P1;HPM_P2
2021/01/12 00:00:44;;;;;;;30.73;23.30;;;6.20;99.90;;;;;;5084707;28;20083;-84
2021/01/12 00:03:10;;;;;;;34.55;24.80;;;6.30;99.90;;;;;;5081839;28;20081;-83
2021/01/12 00:05:36;;;;;;;32.97;23.95;;;6.30;99.90;;;;;;5082386;28;20533;-83
2021/01/12 00:08:07;;;;;;;24.58;20.20;;;6.30;99.90;;;;;;5087443;28;20024;-83
2021/01/12 00:10:32;;;;;;;31.13;23.70;;;6.30;99.90;;;;;;5088359;28;20028;-83
2021/01/12 00:12:58;;;;;;;28.73;23.48;;;6.30;99.90;;;;;;5092342;28;20085;-83
2021/01/12 00:15:23;;;;;;;32.30;23.33;;;6.30;99.90;;;;;;5094258;28;20039;-83
2021/01/12 00:17:49;;;;;;;28.77;21.67;;;6.30;99.90;;;;;;5087681;28;20020;-83
2021/01/12 00:20:15;;;;;;;30.63;24.58;;;6.30;99.90;;;;;;5095029;28;20013;-83
2021/01/12 00:22:40;;;;;;;33.10;23.65;;;6.30;99.90;;;;;;5088243;28;20028;-83
2021/01/12 00:25:07;;;;;;;40.95;25.30;;;6.30;99.90;;;;;;5088171;28;20031;-82
2021/01/12 00:27:32;;;;;;;30.25;22.85;;;6.30;99.90;;;;;;5093059;28;20387;-83
2021/01/12 00:29:58;;;;;;;33.33;22.73;;;6.30;99.90;;;;;;5092070;28;20033;-83
2021/01/12 00:32:25;;;;;;;29.88;22.60;;;6.30;99.90;;;;;;5087991;28;20050;-83
2021/01/12 00:34:52;;;;;;;29.55;21.50;;;6.30;99.90;;;;;;5087098;28;20020;-84
2021/01/12 00:37:25;;;;;;;31.95;20.88;;;6.30;99.90;;;;;;5091957;28;20387;-83
2021/01/12 00:39:51;;;;;;;29.17;21.77;;;6.30;99.90;;;;;;5085195;28;20103;-83
2021/01/12 00:42:17;;;;;;;27.92;21.17;;;6.20;99.90;;;;;;5090689;28;20031;-83
2021/01/12 00:44:43;;;;;;;23.45;19.23;;;6.30;99.90;;;;;;5092801;28;20489;-83
2021/01/12 00:47:09;;;;;;;27.45;19.40;;;6.30;99.90;;;;;;5087529;28;20471;-83
2021/01/12 00:49:35;;;;;;;26.38;20.05;;;6.30;99.90;;;;;;5086889;28;20032;-84
2021/01/12 00:52:01;;;;;;;28.48;21.23;;;6.30;99.90;;;;;;5093767;28;20073;-84
2021/01/12 00:54:27;;;;;;;27.00;18.88;;;6.30;99.90;;;;;;5087290;28;20087;-84
2021/01/12 00:56:54;;;;;;;26.92;18.27;;;6.30;99.90;;;;;;5087770;28;20087;-83
2021/01/12 00:59:20;;;;;;;26.55;18.83;;;6.20;99.90;;;;;;5079340;28;20028;-84
2021/01/12 01:01:46;;;;;;;26.92;17.25;;;6.30;99.90;;;;;;5093045;28;20020;-85
2021/01/12 01:04:13;;;;;;;26.60;18.00;;;6.30;99.90;;;;;;5087697;28;20028;-85
2021/01/12 01:06:40;;;;;;;26.55;17.42;;;6.30;99.90;;;;;;5090303;28;20020;-85
2021/01/12 01:09:06;;;;;;;23.15;17.05;;;6.30;99.90;;;;;;5087777;28;20036;-85
2021/01/12 01:11:31;;;;;;;25.45;16.65;;;6.30;99.90;;;;;;5085232;28;20514;-85
2021/01/12 01:13:58;;;;;;;20.20;15.10;;;6.20;99.90;;;;;;5092337;28;20501;-85
2021/01/12 01:16:33;;;;;;;22.77;15.90;;;6.30;99.90;;;;;;5092861;28;20085;-84
2021/01/12 01:18:59;;;;;;;23.63;16.00;;;6.30;99.90;;;;;;5087709;28;20016;-86
2021/01/12 01:21:25;;;;;;;20.83;15.15;;;6.20;99.90;;;;;;5091515;28;20012;-86
2021/01/12 01:23:51;;;;;;;20.65;14.65;;;6.20;99.90;;;;;;5078470;28;20107;-87
2021/01/12 01:26:17;;;;;;;21.80;16.35;;;6.20;99.90;;;;;;5091669;28;20024;-87
2021/01/12 01:28:43;;;;;;;18.58;13.90;;;6.20;99.90;;;;;;5086115;28;20079;-87
2021/01/12 01:31:09;;;;;;;22.70;15.15;;;6.30;99.90;;;;;;5091445;28;20511;-86
2021/01/12 01:33:34;;;;;;;17.63;13.93;;;6.30;99.90;;;;;;5092193;28;20032;-86
2021/01/12 01:36:00;;;;;;;22.75;15.23;;;6.20;99.90;;;;;;5086707;28;20058;-85
2021/01/12 01:38:25;;;;;;;18.02;14.43;;;6.20;99.90;;;;;;5091136;28;20020;-85
2021/01/12 01:40:51;;;;;;;20.30;14.18;;;6.20;99.90;;;;;;5077629;28;20051;-85
2021/01/12 01:43:22;;;;;;;22.25;15.10;;;6.30;99.90;;;;;;5086427;28;20153;-84
2021/01/12 01:45:48;;;;;;;21.08;14.18;;;6.30;99.90;;;;;;5091210;28;20039;-84
2021/01/12 01:48:14;;;;;;;20.17;14.20;;;6.30;99.90;;;;;;5085457;28;20384;-85
2021/01/12 01:50:40;;;;;;;24.23;14.85;;;6.30;99.90;;;;;;5091808;28;20502;-86
2021/01/12 01:53:10;;;;;;;21.95;14.48;;;6.30;99.90;;;;;;5083805;28;20028;-86
2021/01/12 01:55:36;;;;;;;20.33;14.25;;;6.30;99.90;;;;;;5089019;28;20051;-86
2021/01/12 01:58:02;;;;;;;20.65;14.80;;;6.30;99.90;;;;;;5086559;28;20472;-86
2021/01/12 02:00:27;;;;;;;20.27;14.88;;;6.30;99.90;;;;;;5084738;28;20024;-88
2021/01/12 02:03:01;;;;;;;22.48;15.20;;;6.40;99.90;;;;;;5084884;28;20044;-85
2021/01/12 02:05:33;;;;;;;21.13;15.40;;;6.30;99.90;;;;;;5092489;28;20023;-86
2021/01/12 02:08:03;;;;;;;22.05;15.38;;;6.40;99.90;;;;;;5087402;28;20066;-84
2021/01/12 02:10:29;;;;;;;;;;;6.40;99.90;;;;;;5084852;28;20071;-85
2021/01/12 02:12:59;;;;;;;22.65;15.48;;;6.40;99.90;;;;;;5086311;28;19947;-85
2021/01/12 02:15:25;;;;;;;;;;;6.40;99.90;;;;;;5086031;28;20012;-85
2021/01/12 02:17:51;;;;;;;22.50;15.82;;;6.40;99.90;;;;;;5091408;28;19930;-85
2021/01/12 02:20:18;;;;;;;23.05;15.48;;;6.40;99.90;;;;;;5092801;28;20464;-86
2021/01/12 02:22:48;;;;;;;25.30;16.48;;;6.50;99.90;;;;;;5089007;28;20475;-85
2021/01/12 02:25:16;;;;;;;25.20;16.55;;;6.50;99.90;;;;;;5088375;28;20024;-85
2021/01/12 02:27:42;;;;;;;24.63;17.02;;;6.50;99.90;;;;;;5084456;28;20056;-86
2021/01/12 02:30:08;;;;;;;28.15;17.52;;;6.60;99.90;;;;;;5091018;28;20572;-86
2021/01/12 02:32:34;;;;;;;27.05;17.30;;;6.60;99.90;;;;;;5086069;28;20028;-86
2021/01/12 02:35:02;;;;;;;22.70;16.02;;;6.60;99.90;;;;;;5092095;28;20039;-87
2021/01/12 02:37:27;;;;;;;22.88;15.77;;;6.60;99.90;;;;;;5091641;28;20028;-87
2021/01/12 02:40:00;;;;;;;23.73;15.82;;;6.60;99.90;;;;;;5085816;28;20491;-87
2021/01/12 02:42:26;;;;;;;24.00;16.58;;;6.70;99.90;;;;;;5086009;28;20501;-87
2021/01/12 02:44:51;;;;;;;23.48;15.80;;;6.70;99.90;;;;;;5086050;28;20104;-87
2021/01/12 02:47:17;;;;;;;22.25;14.88;;;6.70;99.90;;;;;;5083171;28;20415;-87
2021/01/12 02:49:43;;;;;;;20.10;13.20;;;6.70;99.90;;;;;;5092953;28;20016;-88
2021/01/12 02:52:13;;;;;;;21.77;14.50;;;6.80;99.90;;;;;;5092297;28;20023;-88
2021/01/12 02:54:41;;;;;;;;;;;6.80;99.90;;;;;;5092216;28;20448;-86
2021/01/12 02:57:08;;;;;;;19.33;12.23;;;6.80;99.90;;;;;;5090282;28;19962;-87
2021/01/12 02:59:33;;;;;;;17.42;12.18;;;6.80;99.90;;;;;;5086508;28;20020;-86
2021/01/12 03:01:59;;;;;;;20.83;11.98;;;6.80;99.90;;;;;;5092279;28;20353;-85
2021/01/12 03:04:24;;;;;;;20.33;11.80;;;6.90;99.90;;;;;;5090913;28;20426;-84
2021/01/12 03:06:50;;;;;;;18.23;10.48;;;6.90;99.90;;;;;;5083195;28;20107;-85
2021/01/12 03:09:15;;;;;;;16.88;10.50;;;6.90;99.90;;;;;;5085584;28;20046;-86
2021/01/12 03:11:41;;;;;;;18.27;10.15;;;6.90;99.90;;;;;;5090889;28;20028;-87
2021/01/12 03:14:07;;;;;;;17.25;10.13;;;7.00;99.90;;;;;;5092516;28;20361;-87
2021/01/12 03:16:33;;;;;;;17.13;10.13;;;7.00;99.90;;;;;;5090333;28;20062;-87
2021/01/12 03:19:00;;;;;;;16.20;9.38;;;7.00;99.90;;;;;;5085557;28;20515;-87
2021/01/12 03:21:26;;;;;;;15.75;9.07;;;7.00;99.90;;;;;;5082804;28;20027;-86
2021/01/12 03:23:51;;;;;;;15.73;9.90;;;7.00;99.90;;;;;;5088115;28;20020;-86
2021/01/12 03:26:23;;;;;;;15.23;8.85;;;7.00;99.90;;;;;;5091750;28;20012;-85
2021/01/12 03:28:49;;;;;;;18.70;8.90;;;7.10;99.90;;;;;;5088644;28;20059;-86
2021/01/12 03:31:15;;;;;;;15.95;8.50;;;7.10;99.90;;;;;;5091127;28;20484;-84
2021/01/12 03:33:40;;;;;;;15.73;8.63;;;7.10;99.90;;;;;;5088800;28;20035;-85
2021/01/12 03:36:06;;;;;;;12.70;8.30;;;7.10;99.90;;;;;;5091446;28;20016;-86
2021/01/12 03:38:32;;;;;;;13.93;7.80;;;7.10;99.90;;;;;;5084703;28;20124;-86
2021/01/12 03:40:57;;;;;;;13.48;8.15;;;7.10;99.90;;;;;;5085310;28;20066;-85
2021/01/12 03:43:23;;;;;;;17.10;8.65;;;7.10;99.90;;;;;;5092112;28;20444;-85
2021/01/12 03:45:49;;;;;;;13.40;7.32;;;7.10;99.90;;;;;;5092165;28;20073;-85
2021/01/12 03:48:15;;;;;;;13.30;7.75;;;7.10;99.90;;;;;;5088874;28;20073;-86
2021/01/12 03:50:40;;;;;;;16.52;7.38;;;7.10;99.90;;;;;;5088743;28;20430;-86
2021/01/12 03:53:06;;;;;;;14.60;8.13;;;7.10;99.90;;;;;;5095260;28;20023;-85
2021/01/12 03:55:31;;;;;;;14.40;7.88;;;7.20;99.90;;;;;;5085749;28;20052;-85
2021/01/12 03:57:57;;;;;;;15.65;8.35;;;7.10;99.90;;;;;;5088487;28;20054;-85
2021/01/12 04:00:22;;;;;;;10.75;7.82;;;7.10;99.90;;;;;;5087559;28;20103;-86
2021/01/12 04:02:48;;;;;;;14.75;8.10;;;7.20;99.90;;;;;;5091878;28;20020;-86
2021/01/12 04:05:14;;;;;;;12.73;8.07;;;7.20;99.90;;;;;;5084811;28;20021;-86
2021/01/12 04:07:39;;;;;;;17.35;8.68;;;7.20;99.90;;;;;;5091499;28;20024;-85
2021/01/12 04:10:06;;;;;;;16.05;8.23;;;7.20;99.90;;;;;;5090781;28;20023;-85
2021/01/12 04:12:32;;;;;;;13.90;8.70;;;7.20;99.90;;;;;;5086253;28;20040;-86
2021/01/12 04:14:58;;;;;;;12.02;8.27;;;7.20;99.90;;;;;;5086790;28;20021;-85
2021/01/12 04:17:23;;;;;;;12.43;7.75;;;7.20;99.90;;;;;;5093087;28;20050;-85
2021/01/12 04:19:49;;;;;;;14.10;8.38;;;7.30;99.90;;;;;;5093896;28;20499;-84
2021/01/12 04:22:15;;;;;;;14.20;8.10;;;7.20;99.90;;;;;;5088245;28;20016;-85
2021/01/12 04:24:40;;;;;;;11.55;7.93;;;7.20;99.90;;;;;;5091295;28;20031;-85
2021/01/12 04:27:06;;;;;;;12.75;7.32;;;7.20;99.90;;;;;;5091752;28;20031;-85
2021/01/12 04:29:31;;;;;;;15.20;7.95;;;7.20;99.90;;;;;;5088002;28;20062;-85
2021/01/12 04:31:57;;;;;;;14.52;8.00;;;7.30;99.90;;;;;;5093661;28;20024;-85
2021/01/12 04:34:22;;;;;;;15.30;8.02;;;7.30;99.90;;;;;;5087872;28;20027;-85
2021/01/12 04:36:48;;;;;;;13.30;7.82;;;7.30;99.90;;;;;;5087656;28;20424;-85
2021/01/12 04:39:13;;;;;;;14.60;7.95;;;7.30;99.90;;;;;;5093487;28;20050;-84
2021/01/12 04:41:39;;;;;;;15.40;8.15;;;7.30;99.90;;;;;;5086846;28;20454;-85
2021/01/12 04:44:05;;;;;;;14.45;7.72;;;7.30;99.90;;;;;;5090147;28;20471;-85
2021/01/12 04:46:30;;;;;;;11.50;8.35;;;7.30;99.90;;;;;;5087491;28;20024;-84
2021/01/12 04:48:56;;;;;;;18.05;8.15;;;7.30;99.90;;;;;;5093293;28;20016;-85
2021/01/12 04:51:23;;;;;;;13.38;8.32;;;7.30;99.90;;;;;;5087607;28;20028;-85
2021/01/12 04:53:49;;;;;;;15.27;7.75;;;7.30;99.90;;;;;;5084951;28;20704;-84
2021/01/12 04:56:22;;;;;;;16.63;8.00;;;7.30;99.90;;;;;;5053564;28;20067;-84
2021/01/12 04:58:49;;;;;;;16.90;8.65;;;7.40;99.90;;;;;;5048450;28;20503;-84
2021/01/12 05:01:17;;;;;;;14.05;7.40;;;7.40;99.90;;;;;;5038675;28;20021;-84
2021/01/12 05:03:47;;;;;;;17.05;7.30;;;7.40;99.90;;;;;;5049234;28;20481;-84
2021/01/12 05:06:14;;;;;;;13.88;7.93;;;7.40;99.90;;;;;;5043962;28;20020;-84
2021/01/12 05:08:44;;;;;;;12.30;7.75;;;7.40;99.90;;;;;;5050342;28;20439;-85
2021/01/12 05:11:11;;;;;;;17.13;7.90;;;7.40;99.90;;;;;;5070023;28;20695;-84
2021/01/12 05:13:41;;;;;;;13.40;7.70;;;7.40;99.90;;;;;;5048103;28;20036;-85
2021/01/12 05:16:11;;;;;;;13.95;7.43;;;7.40;99.90;;;;;;5050441;28;20104;-85
2021/01/12 05:18:39;;;;;;;16.50;7.70;;;7.40;99.90;;;;;;5070417;28;20074;-85
2021/01/12 05:21:08;;;;;;;15.65;7.78;;;7.40;99.90;;;;;;5050163;28;20020;-85
2021/01/12 05:24:03;;;;;;;15.13;7.72;;;7.50;99.90;;;;;;5047121;28;20078;-85
2021/01/12 05:26:37;;;;;;;16.48;8.80;;;7.50;99.90;;;;;;5045674;28;20494;-85
2021/01/12 05:29:05;;;;;;;14.60;7.88;;;7.50;99.90;;;;;;5048477;28;20498;-85
2021/01/12 05:31:31;;;;;;;15.85;8.10;;;7.40;99.90;;;;;;5048677;28;20484;-86
2021/01/12 05:34:03;;;;;;;15.40;7.80;;;7.50;99.90;;;;;;5050122;28;20055;-86
2021/01/12 05:36:30;;;;;;;19.55;7.90;;;7.50;99.90;;;;;;5072178;28;20043;-85
2021/01/12 05:38:59;;;;;;;15.07;8.13;;;7.50;99.90;;;;;;5070819;28;20044;-87
2021/01/12 05:41:27;;;;;;;16.60;7.38;;;7.50;99.90;;;;;;5071088;28;20021;-86
2021/01/12 05:43:52;;;;;;;14.77;7.13;;;7.50;99.90;;;;;;5068832;28;20024;-86
2021/01/12 05:46:18;;;;;;;16.48;7.60;;;7.50;99.90;;;;;;5071632;28;20427;-87
2021/01/12 05:48:45;;;;;;;14.50;8.75;;;7.50;99.90;;;;;;5070361;28;20025;-86
2021/01/12 05:51:13;;;;;;;18.30;7.85;;;7.50;99.90;;;;;;5048725;28;20047;-85
2021/01/12 05:54:02;;;;;;;14.50;7.07;;;7.50;99.90;;;;;;5049491;28;20024;-85
2021/01/12 05:56:29;;;;;;;12.82;7.07;;;7.50;99.90;;;;;;5024475;28;20392;-85
2021/01/12 05:58:56;;;;;;;14.75;6.97;;;7.50;99.90;;;;;;5049145;28;20020;-85
2021/01/12 06:01:44;;;;;;;15.93;7.20;;;7.50;99.90;;;;;;5049924;28;20053;-85
2021/01/12 06:04:11;;;;;;;12.80;6.57;;;7.60;99.90;;;;;;5036848;28;20032;-85
2021/01/12 06:06:39;;;;;;;17.85;7.30;;;7.50;99.90;;;;;;5069860;28;20023;-86
2021/01/12 06:09:06;;;;;;;16.67;6.80;;;7.50;99.90;;;;;;5053216;28;20043;-84
2021/01/12 06:11:35;;;;;;;16.20;6.82;;;7.50;99.90;;;;;;5055765;28;20060;-85
2021/01/12 06:14:15;;;;;;;13.32;7.90;;;7.60;99.90;;;;;;5054637;28;20028;-86
2021/01/12 06:16:43;;;;;;;12.70;7.45;;;7.60;99.90;;;;;;5072897;28;20026;-86
2021/01/12 06:19:13;;;;;;;14.77;7.25;;;7.60;99.90;;;;;;5049402;28;20028;-87
2021/01/12 06:21:55;;;;;;;13.70;6.50;;;7.60;99.90;;;;;;5054374;28;20459;-86
2021/01/12 06:24:36;;;;;;;16.52;4.95;;;7.60;99.90;;;;;;5054905;28;20021;-87
2021/01/12 06:27:09;;;;;;;9.88;4.10;;;7.60;99.90;;;;;;5054806;28;20055;-86
2021/01/12 06:29:34;;;;;;;11.95;4.57;;;7.60;99.90;;;;;;5073316;28;20047;-87
2021/01/12 06:32:00;;;;;;;11.35;3.97;;;7.60;99.90;;;;;;5055487;28;20353;-86
2021/01/12 06:34:26;;;;;;;8.50;4.10;;;7.60;99.90;;;;;;5055269;28;20036;-85
2021/01/12 06:36:54;;;;;;;11.00;5.05;;;7.60;99.90;;;;;;5054800;28;20028;-85
2021/01/12 06:39:22;;;;;;;10.30;4.85;;;7.60;99.90;;;;;;5055156;28;20523;-85
2021/01/12 06:41:49;;;;;;;14.35;5.38;;;7.60;99.90;;;;;;5055534;28;20056;-85
2021/01/12 06:44:23;;;;;;;11.43;5.63;;;7.50;99.90;;;;;;5055106;28;20028;-84
2021/01/12 06:46:50;;;;;;;15.35;5.85;;;7.50;99.90;;;;;;5055106;28;20472;-84
2021/01/12 06:49:27;;;;;;;13.57;6.28;;;7.50;99.90;;;;;;5054980;28;20024;-84
2021/01/12 06:51:56;;;;;;;11.65;6.05;;;7.50;99.90;;;;;;5054653;28;20025;-84
2021/01/12 06:54:22;;;;;;;9.98;5.97;;;7.50;99.90;;;;;;5072714;28;20051;-84
2021/01/12 06:56:59;;;;;;;12.38;5.25;;;7.50;99.90;;;;;;5073005;28;20024;-85
2021/01/12 06:59:32;;;;;;;13.10;5.65;;;7.50;99.90;;;;;;5054986;28;20032;-85
2021/01/12 07:01:58;;;;;;;11.77;5.63;;;7.50;99.90;;;;;;5054894;28;20451;-84
2021/01/12 07:04:28;;;;;;;12.73;5.72;;;7.50;99.90;;;;;;5054967;28;20070;-85
2021/01/12 07:06:57;;;;;;;13.27;6.10;;;7.50;99.90;;;;;;5044354;28;20025;-85
2021/01/12 07:09:24;;;;;;;11.40;5.57;;;7.50;99.90;;;;;;5042328;28;20273;-85
2021/01/12 07:11:50;;;;;;;15.98;5.38;;;7.50;99.90;;;;;;5055388;28;20025;-84
2021/01/12 07:14:25;;;;;;;13.70;5.95;;;7.50;99.90;;;;;;5039692;28;20028;-84
2021/01/12 07:16:50;;;;;;;16.30;5.43;;;7.50;99.90;;;;;;5052384;28;20028;-85
2021/01/12 07:19:16;;;;;;;11.23;4.80;;;7.40;99.90;;;;;;5065216;28;20017;-84
2021/01/12 07:21:42;;;;;;;13.35;4.75;;;7.40;99.90;;;;;;5041883;28;20036;-85
2021/01/12 07:24:16;;;;;;;14.88;4.03;;;7.40;99.90;;;;;;5057619;28;20025;-84
2021/01/12 07:26:43;;;;;;;10.48;4.13;;;7.40;99.90;;;;;;5049400;28;20025;-84
2021/01/12 07:29:10;;;;;;;13.20;4.38;;;7.40;99.90;;;;;;5054136;28;20028;-84
2021/01/12 07:31:36;;;;;;;10.38;4.03;;;7.40;99.90;;;;;;5037747;28;20115;-84
2021/01/12 07:34:02;;;;;;;10.45;3.03;;;7.40;99.90;;;;;;5053915;28;20610;-84
2021/01/12 07:36:28;;;;;;;8.82;2.83;;;7.30;99.90;;;;;;5043340;28;20025;-85
2021/01/12 07:38:53;;;;;;;10.93;2.70;;;7.30;99.90;;;;;;5047615;28;20396;-84
2021/01/12 07:41:19;;;;;;;8.57;2.38;;;7.30;99.90;;;;;;5051182;28;20036;-85
2021/01/12 07:43:45;;;;;;;6.82;1.67;;;7.20;99.90;;;;;;5040839;28;20060;-85
2021/01/12 07:46:11;;;;;;;5.93;1.63;;;7.20;99.90;;;;;;5049435;28;20212;-86
2021/01/12 07:48:37;;;;;;;7.28;1.70;;;7.10;99.90;;;;;;5041246;28;20037;-86
2021/01/12 07:51:04;;;;;;;6.93;1.88;;;7.10;99.90;;;;;;5054741;28;20032;-85
2021/01/12 07:53:33;;;;;;;6.38;1.83;;;7.10;99.90;;;;;;5049188;28;20036;-86
2021/01/12 07:55:59;;;;;;;10.88;2.13;;;7.10;99.90;;;;;;5105176;28;20075;-85
2021/01/12 07:58:26;;;;;;;7.40;2.22;;;7.10;99.90;;;;;;5088088;28;20029;-85
2021/01/12 08:00:52;;;;;;;5.18;2.30;;;7.00;99.90;;;;;;5084484;28;20292;-86
2021/01/12 08:03:25;;;;;;;7.75;2.40;;;7.10;99.90;;;;;;5080521;28;20108;-86
2021/01/12 08:06:01;;;;;;;11.63;2.50;;;7.00;99.90;;;;;;5082697;28;20024;-85
2021/01/12 08:08:26;;;;;;;7.45;2.47;;;7.10;99.90;;;;;;5081311;28;20047;-85
2021/01/12 08:10:52;;;;;;;9.32;3.30;;;7.00;99.90;;;;;;5087109;28;20402;-85
2021/01/12 08:13:18;;;;;;;8.93;3.50;;;7.00;99.90;;;;;;5077706;28;20395;-85
2021/01/12 08:15:44;;;;;;;10.63;4.18;;;7.10;99.90;;;;;;5073166;28;20442;-86
2021/01/12 08:18:21;;;;;;;16.48;4.22;;;7.10;99.90;;;;;;5078162;28;20031;-86
2021/01/12 08:20:53;;;;;;;10.23;3.80;;;7.10;99.90;;;;;;5084935;28;20376;-85
2021/01/12 08:23:19;;;;;;;11.25;4.18;;;7.10;99.90;;;;;;5086946;28;20476;-83
2021/01/12 08:25:44;;;;;;;11.02;3.22;;;7.10;99.90;;;;;;5092347;28;20020;-85
2021/01/12 08:28:10;;;;;;;10.88;3.10;;;7.10;99.90;;;;;;5072367;28;20499;-84
2021/01/12 08:30:37;;;;;;;9.13;2.88;;;7.10;99.90;;;;;;5081936;28;20097;-85
2021/01/12 08:33:24;;;;;;;8.18;2.35;;;7.10;99.90;;;;;;5084429;28;20032;-85
2021/01/12 08:36:20;;;;;;;8.88;2.50;;;7.10;99.90;;;;;;5075885;28;20042;-86
2021/01/12 08:38:53;;;;;;;9.52;2.17;;;7.10;99.90;;;;;;5080350;28;20036;-85
2021/01/12 08:41:19;;;;;;;10.32;2.70;;;7.10;99.90;;;;;;5086223;28;20031;-85
2021/01/12 08:43:45;;;;;;;9.77;2.83;;;7.10;99.90;;;;;;5076698;28;20111;-85
2021/01/12 08:46:11;;;;;;;6.53;2.63;;;7.10;99.90;;;;;;5086291;28;20031;-86
2021/01/12 08:48:48;;;;;;;6.30;2.90;;;7.10;99.90;;;;;;5097939;28;20121;-86
2021/01/12 08:51:18;;;;;;;9.85;3.60;;;7.10;99.90;;;;;;5073008;28;20095;-85
2021/01/12 08:53:46;;;;;;;12.95;4.80;;;7.10;99.90;;;;;;5076199;28;20434;-85
2021/01/12 08:56:12;;;;;;;8.80;4.30;;;7.10;99.90;;;;;;5034844;28;20024;-86
2021/01/12 08:58:38;;;;;;;11.00;4.15;;;7.10;99.90;;;;;;5035873;28;20496;-86
2021/01/12 09:01:05;;;;;;;9.38;4.07;;;7.20;99.90;;;;;;5046918;28;20442;-87
2021/01/12 09:03:31;;;;;;;10.82;4.25;;;7.10;99.90;;;;;;5040867;28;20166;-87
2021/01/12 09:05:56;;;;;;;8.13;4.10;;;7.10;99.90;;;;;;5056799;28;20172;-87
2021/01/12 09:08:23;;;;;;;11.88;4.70;;;7.10;99.90;;;;;;5046397;28;20036;-87
2021/01/12 09:10:50;;;;;;;8.15;4.35;;;7.10;99.90;;;;;;5046881;28;20028;-86
2021/01/12 09:13:16;;;;;;;9.80;4.70;;;7.10;99.90;;;;;;5046347;28;20111;-86
2021/01/12 09:15:47;;;;;;;10.68;4.25;;;7.10;99.90;;;;;;5051985;28;20031;-86
2021/01/12 09:18:24;;;;;;;9.45;4.05;;;7.00;99.90;;;;;;5048487;28;20028;-88
2021/01/12 09:20:54;;;;;;;9.25;4.32;;;7.00;99.90;;;;;;5046868;28;20021;-85
2021/01/12 09:23:20;;;;;;;8.27;3.45;;;7.00;99.90;;;;;;5044532;28;20499;-86
2021/01/12 09:25:54;;;;;;;8.05;3.30;;;7.00;99.90;;;;;;5056955;28;20370;-86
2021/01/12 09:28:26;;;;;;;10.25;3.25;;;7.00;99.90;;;;;;5044283;28;20047;-87
2021/01/12 09:31:09;;;;;;;9.40;2.60;;;7.10;99.90;;;;;;5062349;28;20354;-86
2021/01/12 09:33:35;;;;;;;5.35;1.80;;;7.20;99.90;;;;;;5062044;28;20032;-86
2021/01/12 09:36:10;;;;;;;4.93;1.75;;;7.10;99.90;;;;;;5040638;28;20060;-85
2021/01/12 09:38:40;;;;;;;5.93;1.60;;;7.10;99.90;;;;;;5042026;28;20025;-84
2021/01/12 09:41:07;;;;;;;5.47;1.63;;;7.10;99.90;;;;;;5043738;28;20024;-85
2021/01/12 09:43:33;;;;;;;7.70;1.70;;;7.10;99.90;;;;;;5042896;28;20504;-85
2021/01/12 09:45:59;;;;;;;5.97;1.92;;;7.00;99.90;;;;;;5037071;28;20491;-85
2021/01/12 09:48:25;;;;;;;3.50;1.40;;;7.00;99.90;;;;;;5049394;28;20040;-84
2021/01/12 09:50:51;;;;;;;5.28;1.70;;;7.00;99.90;;;;;;5047671;28;20476;-85
2021/01/12 09:53:17;;;;;;;4.72;1.52;;;7.10;99.90;;;;;;5048530;28;20498;-85
2021/01/12 09:55:43;;;;;;;4.30;1.55;;;7.10;99.90;;;;;;5079800;28;20050;-84
2021/01/12 09:58:09;;;;;;;6.80;2.58;;;7.10;99.90;;;;;;5081372;28;20089;-84
2021/01/12 10:00:35;;;;;;;4.45;2.20;;;7.20;99.90;;;;;;5078726;28;20020;-84
2021/01/12 10:03:00;;;;;;;4.82;2.15;;;7.20;99.90;;;;;;5086233;28;20042;-85
2021/01/12 10:05:26;;;;;;;8.30;3.03;;;7.30;99.90;;;;;;5077696;28;20219;-86
2021/01/12 10:07:51;;;;;;;9.68;3.00;;;7.30;99.90;;;;;;5078135;28;20483;-86
2021/01/12 10:10:17;;;;;;;5.57;2.50;;;7.30;99.90;;;;;;5088166;28;20035;-87
2021/01/12 10:13:20;;;;;;;6.30;2.10;;;7.40;99.90;;;;;;5078795;28;20028;-86
2021/01/12 10:15:47;;;;;;;6.50;1.70;;;7.50;99.90;;;;;;5075840;28;20039;-86
2021/01/12 10:18:12;;;;;;;5.60;1.90;;;7.50;99.90;;;;;;5073633;28;20042;-86
2021/01/12 10:20:38;;;;;;;3.95;1.48;;;7.60;99.90;;;;;;5078004;28;20472;-87
2021/01/12 10:23:04;;;;;;;5.13;1.40;;;7.70;99.90;;;;;;5077364;28;20391;-86
2021/01/12 10:25:30;;;;;;;5.07;1.38;;;7.70;99.90;;;;;;5080401;28;20555;-86
2021/01/12 10:27:59;;;;;;;16.75;1.00;;;7.60;99.90;;;;;;5087128;28;20087;-88
2021/01/12 10:30:24;;;;;;;6.07;1.10;;;7.60;99.90;;;;;;5079649;28;20081;-86
2021/01/12 10:32:50;;;;;;;5.38;0.93;;;7.60;99.90;;;;;;5076208;28;20036;-87
2021/01/12 10:35:16;;;;;;;3.38;0.80;;;7.50;99.90;;;;;;5074211;28;20020;-90
2021/01/12 10:37:43;;;;;;;4.93;1.08;;;7.50;99.90;;;;;;5074319;28;20025;-87
2021/01/12 10:40:10;;;;;;;8.10;1.20;;;7.40;99.90;;;;;;5080336;28;20028;-88
2021/01/12 10:42:40;;;;;;;5.63;1.10;;;7.30;99.90;;;;;;5077665;28;20052;-88
2021/01/12 10:45:06;;;;;;;3.28;0.93;;;7.40;99.90;;;;;;5089318;28;20313;-85
2021/01/12 10:47:32;;;;;;;2.83;0.70;;;7.40;99.90;;;;;;5093341;28;20024;-85
2021/01/12 10:49:58;;;;;;;7.07;0.88;;;7.40;99.90;;;;;;5083562;28;20499;-86
2021/01/12 10:52:23;;;;;;;6.00;0.57;;;7.40;99.90;;;;;;5083263;28;20471;-84
2021/01/12 10:54:49;;;;;;;4.97;0.90;;;7.40;99.90;;;;;;5081008;28;20044;-85
2021/01/12 10:57:15;;;;;;;4.38;0.80;;;7.50;99.90;;;;;;5079048;28;20036;-84
2021/01/12 10:59:40;;;;;;;4.00;0.77;;;7.40;99.90;;;;;;5078484;28;20533;-84
2021/01/12 11:02:07;;;;;;;3.05;0.50;;;7.30;99.90;;;;;;5085977;28;20020;-84
2021/01/12 11:05:05;;;;;;;2.17;0.40;;;7.20;99.90;;;;;;5078096;28;20033;-86
2021/01/12 11:07:31;;;;;;;3.53;0.40;;;7.00;99.90;;;;;;5075106;28;20051;-84
2021/01/12 11:09:58;;;;;;;2.05;0.30;;;6.90;99.90;;;;;;5078704;28;20020;-85
2021/01/12 11:12:24;;;;;;;3.75;0.30;;;6.80;99.90;;;;;;5084099;28;20498;-83
2021/01/12 11:14:49;;;;;;;4.65;0.28;;;6.70;99.90;;;;;;5087145;28;20028;-87
2021/01/12 11:17:15;;;;;;;1.83;0.30;;;6.70;99.90;;;;;;5086788;28;20548;-86
2021/01/12 11:19:41;;;;;;;6.25;1.08;;;6.60;99.90;;;;;;5074422;28;20047;-87
2021/01/12 11:22:07;;;;;;;2.05;0.30;;;6.60;99.90;;;;;;5082002;28;20028;-85
2021/01/12 11:24:33;;;;;;;9.25;0.32;;;6.60;99.90;;;;;;5080683;28;20107;-86
2021/01/12 11:27:02;;;;;;;4.18;0.40;;;6.60;99.90;;;;;;5071110;28;20028;-86
2021/01/12 11:29:27;;;;;;;2.85;0.50;;;6.60;99.90;;;;;;5082951;28;20470;-86
2021/01/12 11:31:56;;;;;;;8.35;0.30;;;6.70;99.90;;;;;;5077863;28;20131;-84
2021/01/12 11:34:22;;;;;;;5.18;0.40;;;6.80;99.90;;;;;;5088754;28;20024;-85
2021/01/12 11:36:48;;;;;;;1.45;0.20;;;6.90;99.90;;;;;;5081070;28;20032;-84
2021/01/12 11:39:15;;;;;;;2.88;0.38;;;7.00;99.90;;;;;;5073615;28;20112;-84
2021/01/12 11:41:50;;;;;;;2.10;0.30;;;7.10;99.90;;;;;;5087032;28;20046;-84
2021/01/12 11:44:18;;;;;;;3.78;0.40;;;7.40;99.90;;;;;;5071663;28;20438;-84
2021/01/12 11:46:44;;;;;;;3.75;0.50;;;7.50;99.90;;;;;;5076394;28;20057;-84
2021/01/12 11:49:10;;;;;;;3.78;0.30;;;7.50;99.90;;;;;;5072650;28;20052;-85
2021/01/12 11:51:40;;;;;;;5.95;0.40;;;7.50;99.90;;;;;;5086488;28;20464;-86
2021/01/12 11:54:07;;;;;;;2.33;0.38;;;7.50;99.90;;;;;;5072089;28;20047;-85
2021/01/12 11:56:33;;;;;;;2.75;0.30;;;7.50;99.90;;;;;;5079156;28;20123;-85
2021/01/12 11:58:59;;;;;;;4.30;0.93;;;7.40;99.90;;;;;;5086281;28;20020;-85
2021/01/12 12:01:24;;;;;;;4.40;0.30;;;7.70;99.90;;;;;;5074490;28;20055;-85
2021/01/12 12:03:50;;;;;;;4.30;1.05;;;7.80;99.90;;;;;;5081598;28;20057;-85
2021/01/12 12:06:15;;;;;;;3.95;0.45;;;7.70;99.90;;;;;;5084258;28;20020;-85
2021/01/12 12:08:41;;;;;;;2.17;0.63;;;7.60;99.90;;;;;;5079139;28;20039;-85
2021/01/12 12:11:06;;;;;;;5.22;0.85;;;7.50;99.90;;;;;;5083092;28;20421;-84
2021/01/12 12:13:39;;;;;;;1.77;0.30;;;7.40;99.90;;;;;;5084410;28;20047;-85
2021/01/12 12:16:11;;;;;;;8.23;0.70;;;7.30;99.90;;;;;;5083001;28;20019;-86
2021/01/12 12:18:37;;;;;;;5.47;0.60;;;7.10;99.90;;;;;;5080515;28;20139;-86
2021/01/12 12:21:03;;;;;;;3.80;0.32;;;7.00;99.90;;;;;;5080684;28;20115;-85
2021/01/12 12:23:28;;;;;;;5.15;0.95;;;7.00;99.90;;;;;;5082075;28;20070;-86
2021/01/12 12:25:54;;;;;;;8.18;0.50;;;7.00;99.90;;;;;;5078426;28;20032;-85
2021/01/12 12:28:20;;;;;;;6.35;1.92;;;7.20;99.90;;;;;;5083578;28;20027;-84
2021/01/12 12:30:45;;;;;;;5.22;0.50;;;7.30;99.90;;;;;;5081796;28;20036;-84
2021/01/12 12:33:14;;;;;;;6.65;1.00;;;7.30;99.90;;;;;;5079062;28;20024;-85
2021/01/12 12:35:39;;;;;;;9.05;1.20;;;7.30;99.90;;;;;;5079531;28;20025;-84
2021/01/12 12:38:05;;;;;;;5.15;0.40;;;7.20;99.90;;;;;;5083751;28;20020;-85
2021/01/12 12:40:30;;;;;;;5.70;0.35;;;7.10;99.90;;;;;;5080054;28;20410;-83
2021/01/12 12:42:56;;;;;;;7.07;0.50;;;7.00;99.90;;;;;;5089444;28;20538;-82
2021/01/12 12:45:22;;;;;;;4.90;0.40;;;6.90;99.90;;;;;;5082244;28;20380;-82
2021/01/12 12:47:50;;;;;;;7.22;0.60;;;6.90;99.90;;;;;;5082651;28;20376;-82
2021/01/12 12:50:16;;;;;;;4.65;0.75;;;6.90;99.90;;;;;;5073846;28;20024;-82